sensor_id;sensor_type;location;lat;lon;timestamp;pressure;altitude;pressure_sealevel;temperature
15544;BMP180;7873;52.230;12.856;2023-03-01T00:01:27;102364.66;;;26.05
15544;BMP180;7873;52.230;12.856;2023-03-01T00:03:54;102358.56;;;26.03
15544;BMP180;7873;52.230;12.856;2023-03-01T00:06:21;102353.50;;;26.00
15544;BMP180;7873;52.230;12.856;2023-03-01T00:08:48;102351.94;;;25.98
15544;BMP180;7873;52.230;12.856;2023-03-01T00:11:17;102347.69;;;25.95
15544;BMP180;7873;52.230;12.856;2023-03-01T00:13:44;102342.59;;;25.92
15544;BMP180;7873;52.230;12.856;2023-03-01T00:16:15;102336.31;;;25.84
15544;BMP180;7873;52.230;12.856;2023-03-01T00:18:43;102334.88;;;25.80
15544;BMP180;7873;52.230;12.856;2023-03-01T00:21:10;102338.78;;;25.77
15544;BMP180;7873;52.230;12.856;2023-03-01T00:23:37;102331.69;;;25.76
15544;BMP180;7873;52.230;12.856;2023-03-01T00:26:06;102325.06;;;25.71
15544;BMP180;7873;52.230;12.856;2023-03-01T00:28:34;102328.38;;;25.65
15544;BMP180;7873;52.230;12.856;2023-03-01T00:31:03;102329.84;;;25.59
15544;BMP180;7873;52.230;12.856;2023-03-01T00:33:31;102324.75;;;25.57
15544;BMP180;7873;52.230;12.856;2023-03-01T00:35:58;102320.50;;;25.54
15544;BMP180;7873;52.230;12.856;2023-03-01T00:38:25;102310.16;;;25.50
15544;BMP180;7873;52.230;12.856;2023-03-01T00:40:51;102310.66;;;25.45
15544;BMP180;7873;52.230;12.856;2023-03-01T00:43:18;102313.38;;;25.45
15544;BMP180;7873;52.230;12.856;2023-03-01T00:45:45;102311.97;;;25.41
15544;BMP180;7873;52.230;12.856;2023-03-01T00:48:12;102306.88;;;25.38
15544;BMP180;7873;52.230;12.856;2023-03-01T00:50:40;102302.47;;;25.37
15544;BMP180;7873;52.230;12.856;2023-03-01T00:53:06;102305.66;;;25.33
15544;BMP180;7873;52.230;12.856;2023-03-01T00:55:33;102311.38;;;25.30
15544;BMP180;7873;52.230;12.856;2023-03-01T00:58:00;102306.44;;;25.25
15544;BMP180;7873;52.230;12.856;2023-03-01T01:00:27;102303.72;;;25.25
15544;BMP180;7873;52.230;12.856;2023-03-01T01:02:54;102302.03;;;25.24
15544;BMP180;7873;52.230;12.856;2023-03-01T01:05:21;102301.16;;;25.24
15544;BMP180;7873;52.230;12.856;2023-03-01T01:07:49;102304.72;;;25.24
15544;BMP180;7873;52.230;12.856;2023-03-01T01:10:16;102298.19;;;25.17
15544;BMP180;7873;52.230;12.856;2023-03-01T01:12:44;102294.69;;;25.17
15544;BMP180;7873;52.230;12.856;2023-03-01T01:15:11;102295.50;;;25.17
15544;BMP180;7873;52.230;12.856;2023-03-01T01:17:40;102286.59;;;25.17
15544;BMP180;7873;52.230;12.856;2023-03-01T01:20:08;102293.81;;;25.16
15544;BMP180;7873;52.230;12.856;2023-03-01T01:22:35;102282.28;;;25.06
15544;BMP180;7873;52.230;12.856;2023-03-01T01:25:03;102281.56;;;25.04
15544;BMP180;7873;52.230;12.856;2023-03-01T01:27:30;102287.28;;;25.01
15544;BMP180;7873;52.230;12.856;2023-03-01T01:29:56;102285.28;;;25.03
15544;BMP180;7873;52.230;12.856;2023-03-01T01:32:23;102290.97;;;25.00
15544;BMP180;7873;52.230;12.856;2023-03-01T01:34:50;102282.34;;;24.97
15544;BMP180;7873;52.230;12.856;2023-03-01T01:37:16;102289.03;;;24.93
15544;BMP180;7873;52.230;12.856;2023-03-01T01:39:43;102292.72;;;24.92
15544;BMP180;7873;52.230;12.856;2023-03-01T01:42:15;102289.78;;;24.85
15544;BMP180;7873;52.230;12.856;2023-03-01T01:44:44;102293.19;;;24.87
15544;BMP180;7873;52.230;12.856;2023-03-01T01:47:14;102295.34;;;24.84
15544;BMP180;7873;52.230;12.856;2023-03-01T01:49:43;102292.78;;;24.82
15544;BMP180;7873;52.230;12.856;2023-03-01T01:52:16;102284.16;;;24.79
15544;BMP180;7873;52.230;12.856;2023-03-01T01:54:46;102278.06;;;24.77
15544;BMP180;7873;52.230;12.856;2023-03-01T01:57:19;102282.75;;;24.75
15544;BMP180;7873;52.230;12.856;2023-03-01T01:59:51;102284.22;;;24.69
15544;BMP180;7873;52.230;12.856;2023-03-01T02:02:19;102284.00;;;24.63
15544;BMP180;7873;52.230;12.856;2023-03-01T02:04:47;102275.34;;;24.59
15544;BMP180;7873;52.230;12.856;2023-03-01T02:07:16;102265.00;;;24.55
15544;BMP180;7873;52.230;12.856;2023-03-01T02:09:46;102271.56;;;24.52
15544;BMP180;7873;52.230;12.856;2023-03-01T02:12:14;102261.91;;;24.50
15544;BMP180;7873;52.230;12.856;2023-03-01T02:14:44;102260.34;;;24.47
15544;BMP180;7873;52.230;12.856;2023-03-01T02:17:11;102260.63;;;24.44
15544;BMP180;7873;52.230;12.856;2023-03-01T02:19:47;102255.56;;;24.41
15544;BMP180;7873;52.230;12.856;2023-03-01T02:22:22;102255.03;;;24.38
15544;BMP180;7873;52.230;12.856;2023-03-01T02:25:00;102254.47;;;24.34
15544;BMP180;7873;52.230;12.856;2023-03-01T02:27:37;102247.69;;;24.30
15544;BMP180;7873;52.230;12.856;2023-03-01T02:30:07;102245.00;;;24.30
15544;BMP180;7873;52.230;12.856;2023-03-01T02:32:38;102248.00;;;24.27
15544;BMP180;7873;52.230;12.856;2023-03-01T02:35:09;102245.56;;;24.24
15544;BMP180;7873;52.230;12.856;2023-03-01T02:37:39;102259.19;;;24.23
15544;BMP180;7873;52.230;12.856;2023-03-01T02:40:10;102263.03;;;24.20
15544;BMP180;7873;52.230;12.856;2023-03-01T02:42:43;102262.31;;;24.18
15544;BMP180;7873;52.230;12.856;2023-03-01T02:45:14;102256.94;;;24.18
15544;BMP180;7873;52.230;12.856;2023-03-01T02:47:40;102260.34;;;24.20
15544;BMP180;7873;52.230;12.856;2023-03-01T02:50:24;102261.31;;;24.19
15544;BMP180;7873;52.230;12.856;2023-03-01T02:52:57;102268.88;;;24.16
15544;BMP180;7873;52.230;12.856;2023-03-01T02:55:27;102266.75;;;24.10
15544;BMP180;7873;52.230;12.856;2023-03-01T02:57:55;102263.53;;;24.06
15544;BMP180;7873;52.230;12.856;2023-03-01T03:00:26;102262.66;;;24.06
15544;BMP180;7873;52.230;12.856;2023-03-01T03:02:54;102256.75;;;24.02
15544;BMP180;7873;52.230;12.856;2023-03-01T03:05:23;102259.00;;;23.97
15544;BMP180;7873;52.230;12.856;2023-03-01T03:07:53;102261.84;;;23.96
15544;BMP180;7873;52.230;12.856;2023-03-01T03:10:23;102262.00;;;23.94
15544;BMP180;7873;52.230;12.856;2023-03-01T03:12:51;102267.81;;;23.90
15544;BMP180;7873;52.230;12.856;2023-03-01T03:15:18;102266.09;;;23.89
15544;BMP180;7873;52.230;12.856;2023-03-01T03:17:48;102256.50;;;23.86
15544;BMP180;7873;52.230;12.856;2023-03-01T03:20:17;102258.91;;;23.89
15544;BMP180;7873;52.230;12.856;2023-03-01T03:22:45;102248.84;;;23.91
15544;BMP180;7873;52.230;12.856;2023-03-01T03:25:12;102246.84;;;23.93
15544;BMP180;7873;52.230;12.856;2023-03-01T03:27:40;102250.22;;;23.95
15544;BMP180;7873;52.230;12.856;2023-03-01T03:30:10;102247.25;;;23.98
15544;BMP180;7873;52.230;12.856;2023-03-01T03:32:38;102243.56;;;23.99
15544;BMP180;7873;52.230;12.856;2023-03-01T03:35:09;102248.81;;;24.01
15544;BMP180;7873;52.230;12.856;2023-03-01T03:37:36;102242.56;;;24.00
15544;BMP180;7873;52.230;12.856;2023-03-01T03:40:20;102238.16;;;23.99
15544;BMP180;7873;52.230;12.856;2023-03-01T03:42:47;102240.03;;;23.99
15544;BMP180;7873;52.230;12.856;2023-03-01T03:45:14;102251.09;;;23.96
15544;BMP180;7873;52.230;12.856;2023-03-01T03:47:41;102246.84;;;23.93
15544;BMP180;7873;52.230;12.856;2023-03-01T03:50:11;102243.59;;;23.90
15544;BMP180;7873;52.230;12.856;2023-03-01T03:52:38;102238.50;;;23.87
15544;BMP180;7873;52.230;12.856;2023-03-01T03:55:07;102245.03;;;23.84
15544;BMP180;7873;52.230;12.856;2023-03-01T03:57:37;102239.66;;;23.84
15544;BMP180;7873;52.230;12.856;2023-03-01T04:00:05;102234.13;;;23.86
15544;BMP180;7873;52.230;12.856;2023-03-01T04:02:38;102238.66;;;23.85
15544;BMP180;7873;52.230;12.856;2023-03-01T04:05:06;102238.78;;;23.84
15544;BMP180;7873;52.230;12.856;2023-03-01T04:07:34;102241.66;;;23.83
15544;BMP180;7873;52.230;12.856;2023-03-01T04:10:02;102244.44;;;23.81
15544;BMP180;7873;52.230;12.856;2023-03-01T04:12:29;102237.38;;;23.80
15544;BMP180;7873;52.230;12.856;2023-03-01T04:14:56;102235.56;;;23.71
15544;BMP180;7873;52.230;12.856;2023-03-01T04:17:23;102240.06;;;23.71
15544;BMP180;7873;52.230;12.856;2023-03-01T04:19:50;102240.25;;;23.69
15544;BMP180;7873;52.230;12.856;2023-03-01T04:22:16;102234.28;;;23.66
15544;BMP180;7873;52.230;12.856;2023-03-01T04:24:45;102232.44;;;23.66
15544;BMP180;7873;52.230;12.856;2023-03-01T04:27:11;102232.31;;;23.68
15544;BMP180;7873;52.230;12.856;2023-03-01T04:29:38;102234.88;;;23.69
15544;BMP180;7873;52.230;12.856;2023-03-01T04:32:05;102229.22;;;23.63
15544;BMP180;7873;52.230;12.856;2023-03-01T04:34:31;102237.13;;;23.64
15544;BMP180;7873;52.230;12.856;2023-03-01T04:36:58;102228.63;;;23.59
15544;BMP180;7873;52.230;12.856;2023-03-01T04:39:25;102234.19;;;23.58
15544;BMP180;7873;52.230;12.856;2023-03-01T04:41:53;102236.41;;;23.62
15544;BMP180;7873;52.230;12.856;2023-03-01T04:44:19;102233.69;;;23.72
15544;BMP180;7873;52.230;12.856;2023-03-01T04:46:48;102233.69;;;23.72
15544;BMP180;7873;52.230;12.856;2023-03-01T04:49:15;102220.28;;;23.62
15544;BMP180;7873;52.230;12.856;2023-03-01T04:51:42;102221.59;;;23.39
15544;BMP180;7873;52.230;12.856;2023-03-01T04:54:09;102206.75;;;23.26
15544;BMP180;7873;52.230;12.856;2023-03-01T04:56:35;102211.13;;;23.36
15544;BMP180;7873;52.230;12.856;2023-03-01T04:59:03;102212.81;;;23.47
15544;BMP180;7873;52.230;12.856;2023-03-01T05:01:31;102212.22;;;23.53
15544;BMP180;7873;52.230;12.856;2023-03-01T05:03:57;102218.75;;;23.50
15544;BMP180;7873;52.230;12.856;2023-03-01T05:06:28;102211.81;;;23.48
15544;BMP180;7873;52.230;12.856;2023-03-01T05:08:55;102204.72;;;23.56
15544;BMP180;7873;52.230;12.856;2023-03-01T05:11:21;102202.03;;;23.56
15544;BMP180;7873;52.230;12.856;2023-03-01T05:13:48;102202.44;;;23.61
15544;BMP180;7873;52.230;12.856;2023-03-01T05:16:21;102196.06;;;23.62
15544;BMP180;7873;52.230;12.856;2023-03-01T05:18:48;102192.69;;;23.60
15544;BMP180;7873;52.230;12.856;2023-03-01T05:21:16;102193.56;;;23.51
15544;BMP180;7873;52.230;12.856;2023-03-01T05:23:43;102182.72;;;23.34
15544;BMP180;7873;52.230;12.856;2023-03-01T05:26:10;102185.94;;;23.28
15544;BMP180;7873;52.230;12.856;2023-03-01T05:28:38;102182.53;;;23.07
15544;BMP180;7873;52.230;12.856;2023-03-01T05:31:05;102179.47;;;22.24
15544;BMP180;7873;52.230;12.856;2023-03-01T05:33:37;102195.25;;;21.79
15544;BMP180;7873;52.230;12.856;2023-03-01T05:36:04;102204.03;;;21.90
15544;BMP180;7873;52.230;12.856;2023-03-01T05:38:31;102201.59;;;22.07
15544;BMP180;7873;52.230;12.856;2023-03-01T05:40:58;102202.47;;;22.17
15544;BMP180;7873;52.230;12.856;2023-03-01T05:43:25;102205.81;;;22.10
15544;BMP180;7873;52.230;12.856;2023-03-01T05:45:52;102205.28;;;22.16
15544;BMP180;7873;52.230;12.856;2023-03-01T05:48:18;102194.41;;;22.17
15544;BMP180;7873;52.230;12.856;2023-03-01T05:50:47;102202.47;;;22.17
15544;BMP180;7873;52.230;12.856;2023-03-01T05:53:16;102212.94;;;22.20
15544;BMP180;7873;52.230;12.856;2023-03-01T05:55:43;102213.50;;;22.24
15544;BMP180;7873;52.230;12.856;2023-03-01T05:58:13;102209.69;;;22.26
15544;BMP180;7873;52.230;12.856;2023-03-01T06:00:40;102209.44;;;22.29
15544;BMP180;7873;52.230;12.856;2023-03-01T06:03:10;102208.59;;;22.29
15544;BMP180;7873;52.230;12.856;2023-03-01T06:05:37;102206.03;;;22.27
15544;BMP180;7873;52.230;12.856;2023-03-01T06:08:06;102210.69;;;22.25
15544;BMP180;7873;52.230;12.856;2023-03-01T06:10:33;102210.69;;;22.25
15544;BMP180;7873;52.230;12.856;2023-03-01T06:12:59;102217.75;;;22.26
15544;BMP180;7873;52.230;12.856;2023-03-01T06:15:26;102213.66;;;22.32
15544;BMP180;7873;52.230;12.856;2023-03-01T06:17:55;102211.22;;;22.40
15544;BMP180;7873;52.230;12.856;2023-03-01T06:20:24;102196.22;;;22.47
15544;BMP180;7873;52.230;12.856;2023-03-01T06:22:51;102203.44;;;22.56
15544;BMP180;7873;52.230;12.856;2023-03-01T06:25:23;102208.00;;;22.65
15544;BMP180;7873;52.230;12.856;2023-03-01T06:27:50;102200.78;;;22.75
15544;BMP180;7873;52.230;12.856;2023-03-01T06:30:19;102205.59;;;22.81
15544;BMP180;7873;52.230;12.856;2023-03-01T06:32:46;102204.31;;;22.85
15544;BMP180;7873;52.230;12.856;2023-03-01T06:35:15;102201.22;;;22.89
15544;BMP180;7873;52.230;12.856;2023-03-01T06:37:43;102201.63;;;22.94
15544;BMP180;7873;52.230;12.856;2023-03-01T06:40:10;102198.69;;;22.97
15544;BMP180;7873;52.230;12.856;2023-03-01T06:42:41;102196.72;;;22.99
15544;BMP180;7873;52.230;12.856;2023-03-01T06:45:09;102189.19;;;23.03
15544;BMP180;7873;52.230;12.856;2023-03-01T06:47:36;102193.28;;;23.07
15544;BMP180;7873;52.230;12.856;2023-03-01T06:50:03;102193.88;;;23.10
15544;BMP180;7873;52.230;12.856;2023-03-01T06:52:30;102195.47;;;23.13
15544;BMP180;7873;52.230;12.856;2023-03-01T06:54:57;102199.69;;;23.15
15544;BMP180;7873;52.230;12.856;2023-03-01T06:57:24;102195.88;;;23.18
15544;BMP180;7873;52.230;12.856;2023-03-01T06:59:52;102194.03;;;23.18
15544;BMP180;7873;52.230;12.856;2023-03-01T07:02:18;102199.28;;;23.20
15544;BMP180;7873;52.230;12.856;2023-03-01T07:04:45;102193.75;;;23.21
15544;BMP180;7873;52.230;12.856;2023-03-01T07:07:12;102194.59;;;23.22
15544;BMP180;7873;52.230;12.856;2023-03-01T07:09:38;102197.16;;;23.23
15544;BMP180;7873;52.230;12.856;2023-03-01T07:12:06;102200.84;;;23.22
15544;BMP180;7873;52.230;12.856;2023-03-01T07:14:33;102203.22;;;23.25
15544;BMP180;7873;52.230;12.856;2023-03-01T07:17:01;102202.53;;;23.23
15544;BMP180;7873;52.230;12.856;2023-03-01T07:19:28;102224.03;;;23.23
15544;BMP180;7873;52.230;12.856;2023-03-01T07:21:54;102207.63;;;23.26
15544;BMP180;7873;52.230;12.856;2023-03-01T07:24:22;102207.47;;;23.28
15544;BMP180;7873;52.230;12.856;2023-03-01T07:26:49;102203.94;;;23.27
15544;BMP180;7873;52.230;12.856;2023-03-01T07:29:17;102214.69;;;23.27
15544;BMP180;7873;52.230;12.856;2023-03-01T07:31:44;102203.06;;;23.27
15544;BMP180;7873;52.230;12.856;2023-03-01T07:34:12;102205.75;;;23.27
15544;BMP180;7873;52.230;12.856;2023-03-01T07:36:38;102205.75;;;23.27
15544;BMP180;7873;52.230;12.856;2023-03-01T07:39:09;102204.94;;;23.26
15544;BMP180;7873;52.230;12.856;2023-03-01T07:41:35;102211.31;;;23.25
15544;BMP180;7873;52.230;12.856;2023-03-01T07:44:02;102211.59;;;23.22
15544;BMP180;7873;52.230;12.856;2023-03-01T07:46:29;102218.78;;;23.22
15544;BMP180;7873;52.230;12.856;2023-03-01T07:48:56;102216.09;;;23.22
15544;BMP180;7873;52.230;12.856;2023-03-01T07:51:24;102216.81;;;23.24
15544;BMP180;7873;52.230;12.856;2023-03-01T07:53:51;102219.78;;;23.21
15544;BMP180;7873;52.230;12.856;2023-03-01T07:56:18;102221.91;;;23.17
15544;BMP180;7873;52.230;12.856;2023-03-01T07:58:45;102214.81;;;23.16
15544;BMP180;7873;52.230;12.856;2023-03-01T08:01:14;102216.22;;;23.20
15544;BMP180;7873;52.230;12.856;2023-03-01T08:03:40;102213.84;;;23.17
15544;BMP180;7873;52.230;12.856;2023-03-01T08:06:09;102206.91;;;23.15
15544;BMP180;7873;52.230;12.856;2023-03-01T08:08:38;102203.53;;;23.13
15544;BMP180;7873;52.230;12.856;2023-03-01T08:11:06;102206.59;;;23.08
15544;BMP180;7873;52.230;12.856;2023-03-01T08:13:33;102202.34;;;23.06
15544;BMP180;7873;52.230;12.856;2023-03-01T08:16:01;102204.91;;;23.07
15544;BMP180;7873;52.230;12.856;2023-03-01T08:18:28;102207.44;;;23.09
15544;BMP180;7873;52.230;12.856;2023-03-01T08:20:55;102196.72;;;22.99
15544;BMP180;7873;52.230;12.856;2023-03-01T08:23:22;102200.22;;;23.00
15544;BMP180;7873;52.230;12.856;2023-03-01T08:25:50;102201.09;;;23.00
15544;BMP180;7873;52.230;12.856;2023-03-01T08:28:16;102199.81;;;22.95
15544;BMP180;7873;52.230;12.856;2023-03-01T08:30:43;102195.72;;;22.91
15544;BMP180;7873;52.230;12.856;2023-03-01T08:33:09;102198.41;;;22.91
15544;BMP180;7873;52.230;12.856;2023-03-01T08:35:36;102205.88;;;22.87
15544;BMP180;7873;52.230;12.856;2023-03-01T08:38:03;102206.75;;;22.88
15544;BMP180;7873;52.230;12.856;2023-03-01T08:40:29;102199.38;;;22.80
15544;BMP180;7873;52.230;12.856;2023-03-01T08:43:00;102197.81;;;22.78
15544;BMP180;7873;52.230;12.856;2023-03-01T08:45:26;102205.75;;;22.79
15544;BMP180;7873;52.230;12.856;2023-03-01T08:47:53;102195.13;;;22.78
15544;BMP180;7873;52.230;12.856;2023-03-01T08:50:20;102207.16;;;22.74
15544;BMP180;7873;52.230;12.856;2023-03-01T08:52:48;102201.66;;;22.75
15544;BMP180;7873;52.230;12.856;2023-03-01T08:55:26;102195.53;;;22.73
15544;BMP180;7873;52.230;12.856;2023-03-01T08:57:53;102203.47;;;22.75
15544;BMP180;7873;52.230;12.856;2023-03-01T09:00:22;102198.50;;;22.70
15544;BMP180;7873;52.230;12.856;2023-03-01T09:02:48;102194.84;;;22.71
15544;BMP180;7873;52.230;12.856;2023-03-01T09:05:15;102187.50;;;22.73
15544;BMP180;7873;52.230;12.856;2023-03-01T09:07:42;102189.22;;;22.74
15544;BMP180;7873;52.230;12.856;2023-03-01T09:10:09;102183.97;;;22.73
15544;BMP180;7873;52.230;12.856;2023-03-01T09:12:36;102187.66;;;22.72
15544;BMP180;7873;52.230;12.856;2023-03-01T09:15:03;102183.09;;;22.72
15544;BMP180;7873;52.230;12.856;2023-03-01T09:17:32;102185.94;;;22.71
15544;BMP180;7873;52.230;12.856;2023-03-01T09:19:58;102182.56;;;22.69
15544;BMP180;7873;52.230;12.856;2023-03-01T09:22:25;102176.31;;;22.68
15544;BMP180;7873;52.230;12.856;2023-03-01T09:24:52;102173.34;;;22.71
15544;BMP180;7873;52.230;12.856;2023-03-01T09:27:19;102167.00;;;22.72
15544;BMP180;7873;52.230;12.856;2023-03-01T09:29:46;102177.91;;;22.71
15544;BMP180;7873;52.230;12.856;2023-03-01T09:32:12;102172.53;;;22.71
15544;BMP180;7873;52.230;12.856;2023-03-01T09:34:40;102168.97;;;22.70
15544;BMP180;7873;52.230;12.856;2023-03-01T09:37:21;102167.00;;;22.72
15544;BMP180;7873;52.230;12.856;2023-03-01T09:39:48;102168.69;;;22.73
15544;BMP180;7873;52.230;12.856;2023-03-01T09:42:14;102172.38;;;22.72
15544;BMP180;7873;52.230;12.856;2023-03-01T09:44:45;102172.53;;;22.71
15544;BMP180;7873;52.230;12.856;2023-03-01T09:47:17;102168.13;;;22.70
15544;BMP180;7873;52.230;12.856;2023-03-01T09:49:50;102174.06;;;22.73
15544;BMP180;7873;52.230;12.856;2023-03-01T09:52:24;102170.25;;;22.76
15544;BMP180;7873;52.230;12.856;2023-03-01T09:54:54;102169.44;;;22.75
15544;BMP180;7873;52.230;12.856;2023-03-01T09:57:28;102172.13;;;22.75
15544;BMP180;7873;52.230;12.856;2023-03-01T10:00:01;102168.28;;;22.78
15544;BMP180;7873;52.230;12.856;2023-03-01T10:02:37;102164.47;;;22.80
15544;BMP180;7873;52.230;12.856;2023-03-01T10:05:14;102157.41;;;22.79
15544;BMP180;7873;52.230;12.856;2023-03-01T10:07:48;102164.06;;;22.75
15544;BMP180;7873;52.230;12.856;2023-03-01T10:10:27;102165.31;;;22.81
15544;BMP180;7873;52.230;12.856;2023-03-01T10:12:56;102160.91;;;22.80
15544;BMP180;7873;52.230;12.856;2023-03-01T10:15:30;102151.88;;;22.81
15544;BMP180;7873;52.230;12.856;2023-03-01T10:18:02;102159.38;;;22.77
15544;BMP180;7873;52.230;12.856;2023-03-01T10:20:42;102156.81;;;22.76
15544;BMP180;7873;52.230;12.856;2023-03-01T10:23:10;102156.81;;;22.76
15544;BMP180;7873;52.230;12.856;2023-03-01T10:25:47;102155.00;;;22.76
15544;BMP180;7873;52.230;12.856;2023-03-01T10:28:17;102160.78;;;22.72
15544;BMP180;7873;52.230;12.856;2023-03-01T10:30:44;102157.94;;;22.73
15544;BMP180;7873;52.230;12.856;2023-03-01T10:33:16;102150.88;;;22.72
15544;BMP180;7873;52.230;12.856;2023-03-01T10:35:45;102153.31;;;22.75
15544;BMP180;7873;52.230;12.856;2023-03-01T10:38:14;102150.03;;;22.72
15544;BMP180;7873;52.230;12.856;2023-03-01T10:40:51;102146.25;;;22.74
15544;BMP180;7873;52.230;12.856;2023-03-01T10:43:19;102139.72;;;22.77
15544;BMP180;7873;52.230;12.856;2023-03-01T10:45:45;102144.09;;;22.78
15544;BMP180;7873;52.230;12.856;2023-03-01T10:48:14;102141.41;;;22.78
15544;BMP180;7873;52.230;12.856;2023-03-01T10:50:42;102131.38;;;22.80
15544;BMP180;7873;52.230;12.856;2023-03-01T10:53:22;102136.91;;;22.78
15544;BMP180;7873;52.230;12.856;2023-03-01T10:55:59;102127.00;;;22.79
15544;BMP180;7873;52.230;12.856;2023-03-01T10:58:27;102123.88;;;22.74
15544;BMP180;7873;52.230;12.856;2023-03-01T11:00:56;102126.56;;;22.74
15544;BMP180;7873;52.230;12.856;2023-03-01T11:03:25;102118.22;;;22.77
15544;BMP180;7873;52.230;12.856;2023-03-01T11:05:59;102109.19;;;22.78
15544;BMP180;7873;52.230;12.856;2023-03-01T11:08:33;102113.44;;;22.80
15544;BMP180;7873;52.230;12.856;2023-03-01T11:11:06;102107.66;;;22.75
15544;BMP180;7873;52.230;12.856;2023-03-01T11:13:33;102100.59;;;22.74
15544;BMP180;7873;52.230;12.856;2023-03-01T11:16:02;102104.22;;;22.73
15544;BMP180;7873;52.230;12.856;2023-03-01T11:18:30;102095.63;;;22.70
15544;BMP180;7873;52.230;12.856;2023-03-01T11:20:59;102095.63;;;22.70
15544;BMP180;7873;52.230;12.856;2023-03-01T11:23:28;102094.75;;;22.69
15544;BMP180;7873;52.230;12.856;2023-03-01T11:25:59;102094.06;;;22.67
15544;BMP180;7873;52.230;12.856;2023-03-01T11:28:28;102093.22;;;22.67
15544;BMP180;7873;52.230;12.856;2023-03-01T11:30:57;102094.50;;;22.63
15544;BMP180;7873;52.230;12.856;2023-03-01T11:33:35;102094.63;;;22.61
15544;BMP180;7873;52.230;12.856;2023-03-01T11:36:07;102102.69;;;22.61
15544;BMP180;7873;52.230;12.856;2023-03-01T11:38:36;102089.13;;;22.63
15544;BMP180;7873;52.230;12.856;2023-03-01T11:41:10;102094.50;;;22.63
15544;BMP180;7873;52.230;12.856;2023-03-01T11:43:46;102095.34;;;22.63
15544;BMP180;7873;52.230;12.856;2023-03-01T11:46:54;102091.66;;;22.64
15544;BMP180;7873;52.230;12.856;2023-03-01T11:50:10;102080.09;;;22.64
15544;BMP180;7873;52.230;12.856;2023-03-01T11:52:51;102084.31;;;22.66
15544;BMP180;7873;52.230;12.856;2023-03-01T11:55:29;102086.88;;;22.68
15544;BMP180;7873;52.230;12.856;2023-03-01T11:58:10;102090.53;;;22.67
15544;BMP180;7873;52.230;12.856;2023-03-01T12:00:53;102077.94;;;22.67
15544;BMP180;7873;52.230;12.856;2023-03-01T12:03:27;102081.50;;;22.68
15544;BMP180;7873;52.230;12.856;2023-03-01T12:06:04;102072.44;;;22.69
15544;BMP180;7873;52.230;12.856;2023-03-01T12:08:37;102065.38;;;22.68
15544;BMP180;7873;52.230;12.856;2023-03-01T12:11:17;102065.38;;;22.68
15544;BMP180;7873;52.230;12.856;2023-03-01T12:14:21;102065.50;;;22.66
15544;BMP180;7873;52.230;12.856;2023-03-01T12:17:04;102063.13;;;22.63
15544;BMP180;7873;52.230;12.856;2023-03-01T12:19:42;102055.75;;;22.65
15544;BMP180;7873;52.230;12.856;2023-03-01T12:22:29;102050.56;;;22.64
15544;BMP180;7873;52.230;12.856;2023-03-01T12:25:13;102050.56;;;22.64
15544;BMP180;7873;52.230;12.856;2023-03-01T12:27:54;102049.56;;;22.65
15544;BMP180;7873;52.230;12.856;2023-03-01T12:30:37;102041.50;;;22.65
15544;BMP180;7873;52.230;12.856;2023-03-01T12:33:15;102045.03;;;22.65
15544;BMP180;7873;52.230;12.856;2023-03-01T12:35:54;102046.72;;;22.66
15544;BMP180;7873;52.230;12.856;2023-03-01T12:38:32;102049.28;;;22.68
15544;BMP180;7873;52.230;12.856;2023-03-01T12:41:29;102043.91;;;22.68
15544;BMP180;7873;52.230;12.856;2023-03-01T12:44:11;102045.59;;;22.69
15544;BMP180;7873;52.230;12.856;2023-03-01T12:46:52;102039.53;;;22.67
15544;BMP180;7873;52.230;12.856;2023-03-01T12:49:26;102034.16;;;22.67
15544;BMP180;7873;52.230;12.856;2023-03-01T12:51:58;102032.16;;;22.69
15544;BMP180;7873;52.230;12.856;2023-03-01T12:54:27;102034.00;;;22.68
15544;BMP180;7873;52.230;12.856;2023-03-01T12:56:55;102035.84;;;22.68
15544;BMP180;7873;52.230;12.856;2023-03-01T12:59:26;102026.38;;;22.64
15544;BMP180;7873;52.230;12.856;2023-03-01T13:02:03;102020.03;;;22.65
15544;BMP180;7873;52.230;12.856;2023-03-01T13:04:52;102019.16;;;22.64
15544;BMP180;7873;52.230;12.856;2023-03-01T13:07:26;102022.84;;;22.63
15544;BMP180;7873;52.230;12.856;2023-03-01T13:10:05;102023.84;;;22.62
15544;BMP180;7873;52.230;12.856;2023-03-01T13:12:44;102016.63;;;22.63
15544;BMP180;7873;52.230;12.856;2023-03-01T13:15:29;102017.75;;;22.70
15544;BMP180;7873;52.230;12.856;2023-03-01T13:17:59;102010.69;;;22.69
15544;BMP180;7873;52.230;12.856;2023-03-01T13:20:31;102008.13;;;22.67
15544;BMP180;7873;52.230;12.856;2023-03-01T13:23:07;102010.81;;;22.67
15544;BMP180;7873;52.230;12.856;2023-03-01T13:26:06;102004.59;;;22.67
15544;BMP180;7873;52.230;12.856;2023-03-01T13:28:46;102000.94;;;22.68
15544;BMP180;7873;52.230;12.856;2023-03-01T13:34:50;101989.50;;;22.66
15544;BMP180;7873;52.230;12.856;2023-03-01T13:37:29;101988.63;;;22.65
15544;BMP180;7873;52.230;12.856;2023-03-01T13:39:58;101981.44;;;22.66
15544;BMP180;7873;52.230;12.856;2023-03-01T13:42:33;101977.06;;;22.65
15544;BMP180;7873;52.230;12.856;2023-03-01T13:45:00;101980.28;;;22.68
15544;BMP180;7873;52.230;12.856;2023-03-01T13:47:27;101973.38;;;22.66
15544;BMP180;7873;52.230;12.856;2023-03-01T13:49:58;101971.53;;;22.66
15544;BMP180;7873;52.230;12.856;2023-03-01T13:52:36;101968.84;;;22.66
15544;BMP180;7873;52.230;12.856;2023-03-01T13:55:20;101968.84;;;22.66
15544;BMP180;7873;52.230;12.856;2023-03-01T13:57:51;101967.72;;;22.69
15544;BMP180;7873;52.230;12.856;2023-03-01T14:00:35;101960.34;;;22.71
15544;BMP180;7873;52.230;12.856;2023-03-01T14:03:05;101958.66;;;22.70
15544;BMP180;7873;52.230;12.856;2023-03-01T14:05:34;101957.38;;;22.74
15544;BMP180;7873;52.230;12.856;2023-03-01T14:08:01;101949.44;;;22.72
15544;BMP180;7873;52.230;12.856;2023-03-01T14:10:35;101949.31;;;22.74
15544;BMP180;7873;52.230;12.856;2023-03-01T14:13:14;101948.19;;;22.76
15544;BMP180;7873;52.230;12.856;2023-03-01T14:15:50;101943.81;;;22.75
15544;BMP180;7873;52.230;12.856;2023-03-01T14:18:23;101944.66;;;22.76